createdAt,value
2022-11-25T00:01:41.574Z,11.50
2022-11-25T00:04:10.304Z,11.60
2022-11-25T00:06:38.894Z,12.03
2022-11-25T00:09:11.061Z,12.60
2022-11-25T00:11:43.463Z,12.13
2022-11-25T00:14:16.478Z,11.50
2022-11-25T00:16:48.498Z,12.27
2022-11-25T00:19:17.482Z,11.90
2022-11-25T00:21:46.454Z,11.40
2022-11-25T00:24:17.600Z,12.13
2022-11-25T00:26:47.583Z,11.57
2022-11-25T00:29:16.394Z,12.30
2022-11-25T00:31:45.383Z,12.07
2022-11-25T00:34:15.748Z,12.00
2022-11-25T00:36:44.349Z,11.43
2022-11-25T00:39:15.964Z,12.30
2022-11-25T00:42:04.165Z,12.90
2022-11-25T00:44:37.504Z,11.83
2022-11-25T00:47:10.602Z,12.10
2022-11-25T00:49:40.412Z,12.00
2022-11-25T00:52:10.315Z,12.60
2022-11-25T00:54:38.927Z,11.93
2022-11-25T00:57:08.862Z,11.97
2022-11-25T00:59:37.469Z,11.70
2022-11-25T01:02:06.236Z,11.80
2022-11-25T01:04:35.480Z,12.63
2022-11-25T01:07:05.007Z,12.10
2022-11-25T01:09:33.831Z,12.20
2022-11-25T01:12:02.570Z,12.37
2022-11-25T01:14:34.838Z,11.73
2022-11-25T01:17:03.692Z,12.13
2022-11-25T01:19:38.411Z,11.60
2022-11-25T01:22:07.183Z,12.23
2022-11-25T01:24:36.836Z,12.83
2022-11-25T01:27:05.608Z,12.37
2022-11-25T01:29:35.547Z,12.13
2022-11-25T01:32:04.212Z,12.13
2022-11-25T01:34:34.702Z,11.80
2022-11-25T01:37:04.012Z,12.17
2022-11-25T01:39:33.472Z,12.00
2022-11-25T01:42:03.164Z,11.50
2022-11-25T01:44:34.917Z,12.80
2022-11-25T01:47:10.812Z,12.33
2022-11-25T01:49:43.518Z,11.70
2022-11-25T01:52:18.242Z,12.37
2022-11-25T01:54:55.689Z,11.93
2022-11-25T01:57:29.673Z,11.60
2022-11-25T02:00:04.014Z,11.93
2022-11-25T02:02:33.442Z,11.20
2022-11-25T02:05:05.623Z,11.40
2022-11-25T02:07:38.554Z,11.80
2022-11-25T02:10:13.924Z,11.43
2022-11-25T02:12:47.288Z,11.43
2022-11-25T02:15:18.384Z,11.20
2022-11-25T02:17:47.445Z,11.30
2022-11-25T02:20:18.618Z,10.90
2022-11-25T02:22:58.986Z,11.10
2022-11-25T02:25:32.919Z,11.67
2022-11-25T02:28:06.324Z,11.50
2022-11-25T02:30:35.446Z,11.60
2022-11-25T02:33:05.330Z,11.57
2022-11-25T02:35:37.426Z,11.30
2022-11-25T02:38:10.846Z,11.70
2022-11-25T02:40:50.499Z,12.07
2022-11-25T02:43:19.367Z,11.20
2022-11-25T02:45:58.303Z,12.00
2022-11-25T02:49:00.763Z,11.20
2022-11-25T02:51:24.518Z,12.03
2022-11-25T02:53:53.804Z,11.40
2022-11-25T02:56:28.059Z,11.83
2022-11-25T02:58:56.859Z,11.63
2022-11-25T03:01:28.357Z,12.07
2022-11-25T03:03:57.114Z,11.87
2022-11-25T03:06:25.785Z,12.17
2022-11-25T03:08:54.709Z,11.63
2022-11-25T03:11:45.419Z,12.13
2022-11-25T03:14:14.976Z,11.70
2022-11-25T03:16:44.872Z,12.10
2022-11-25T03:19:13.632Z,11.83
2022-11-25T03:21:42.355Z,11.40
2022-11-25T03:24:11.031Z,12.90
2022-11-25T03:26:40.976Z,11.43
2022-11-25T03:29:09.991Z,11.33
2022-11-25T03:31:40.685Z,11.40
2022-11-25T03:34:12.502Z,11.10
2022-11-25T03:36:41.394Z,12.00
2022-11-25T03:39:11.202Z,11.13
2022-11-25T03:41:41.443Z,12.13
2022-11-25T03:44:10.538Z,11.80
2022-11-25T03:46:40.252Z,12.37
2022-11-25T03:49:09.602Z,11.80
2022-11-25T03:51:38.481Z,11.27
2022-11-25T03:54:07.194Z,11.90
2022-11-25T03:56:57.136Z,11.40
2022-11-25T03:59:25.981Z,11.60
2022-11-25T04:01:54.720Z,11.80
2022-11-25T04:04:24.193Z,11.57
2022-11-25T04:06:52.762Z,12.33
2022-11-25T04:09:21.587Z,11.77
2022-11-25T04:12:08.150Z,10.90
2022-11-25T04:14:48.804Z,11.30
2022-11-25T04:17:17.444Z,11.60
2022-11-25T04:19:46.774Z,11.17
2022-11-25T04:22:15.401Z,12.23
2022-11-25T04:24:46.658Z,11.23
2022-11-25T04:27:20.445Z,11.10
2022-11-25T04:29:51.136Z,11.20
2022-11-25T04:32:20.620Z,12.23
2022-11-25T04:34:49.238Z,11.30
2022-11-25T04:37:18.002Z,11.33
2022-11-25T04:39:46.588Z,11.87
2022-11-25T04:42:36.478Z,11.40
2022-11-25T04:45:22.841Z,12.03
2022-11-25T04:47:53.885Z,11.87
2022-11-25T04:50:25.310Z,12.00
2022-11-25T04:53:00.913Z,11.47
2022-11-25T04:55:29.853Z,12.83
2022-11-25T04:57:59.279Z,11.50
2022-11-25T05:00:29.141Z,11.53
2022-11-25T05:02:59.159Z,11.67
2022-11-25T05:05:27.873Z,11.27
2022-11-25T05:07:57.562Z,12.77
2022-11-25T05:10:26.202Z,11.93
2022-11-25T05:12:54.879Z,12.17
2022-11-25T05:15:24.222Z,11.70
2022-11-25T05:17:56.083Z,11.83
2022-11-25T05:20:40.376Z,11.70
2022-11-25T05:23:09.501Z,11.47
2022-11-25T05:25:38.836Z,11.83
2022-11-25T05:28:43.239Z,11.70
2022-11-25T05:31:31.217Z,11.60
2022-11-25T05:34:02.931Z,11.60
2022-11-25T05:36:33.082Z,11.60
2022-11-25T05:39:02.198Z,11.80
2022-11-25T05:41:53.514Z,11.47
2022-11-25T05:44:23.282Z,11.77
2022-11-25T05:46:55.810Z,11.73
2022-11-25T05:49:25.476Z,12.63
2022-11-25T05:51:54.124Z,11.70
2022-11-25T05:54:25.603Z,11.40
2022-11-25T05:56:54.534Z,11.83
2022-11-25T05:59:29.199Z,11.20
2022-11-25T06:02:13.221Z,12.30
2022-11-25T06:04:42.495Z,12.10
2022-11-25T06:07:11.083Z,11.60
2022-11-25T06:09:41.073Z,11.47
2022-11-25T06:12:09.820Z,12.10
2022-11-25T06:14:45.037Z,12.17
2022-11-25T06:17:15.204Z,12.00
2022-11-25T06:19:50.206Z,12.63
2022-11-25T06:22:18.751Z,11.50
2022-11-25T06:24:54.402Z,11.93
2022-11-25T06:27:31.940Z,11.70
2022-11-25T06:30:14.229Z,12.20
2022-11-25T06:32:49.651Z,11.57
2022-11-25T06:35:23.479Z,12.03
2022-11-25T06:37:56.435Z,12.33
2022-11-25T06:40:24.984Z,11.27
2022-11-25T06:42:53.500Z,12.17
2022-11-25T06:45:22.200Z,11.40
2022-11-25T06:47:52.096Z,11.87
2022-11-25T06:50:20.612Z,12.07
2022-11-25T06:52:49.224Z,12.30
2022-11-25T06:55:17.948Z,12.20
2022-11-25T06:57:46.457Z,11.40
2022-11-25T07:00:16.609Z,12.20
2022-11-25T07:02:48.600Z,12.20
2022-11-25T07:05:18.915Z,12.63
2022-11-25T07:07:48.271Z,12.30
2022-11-25T07:10:17.058Z,12.47
2022-11-25T07:12:46.074Z,11.40
2022-11-25T07:15:14.711Z,13.10
2022-11-25T07:17:43.227Z,13.07
2022-11-25T07:20:12.958Z,12.30
2022-11-25T07:22:42.850Z,12.30
2022-11-25T07:25:11.648Z,14.87
2022-11-25T07:27:40.274Z,14.03
2022-11-25T07:31:09.468Z,13.87
2022-11-25T07:32:59.421Z,13.37
2022-11-25T07:35:27.998Z,13.70
2022-11-25T07:37:58.163Z,13.47
2022-11-25T07:40:26.800Z,12.37
2022-11-25T07:42:55.698Z,12.60
2022-11-25T07:45:24.523Z,12.63
2022-11-25T07:48:01.926Z,13.10
2022-11-25T07:50:30.608Z,12.70
2022-11-25T07:53:00.747Z,13.23
2022-11-25T07:55:29.340Z,13.00
2022-11-25T07:58:00.601Z,12.50
2022-11-25T08:00:29.223Z,12.00
2022-11-25T08:02:57.808Z,12.40
2022-11-25T08:05:26.367Z,12.87
2022-11-25T08:08:16.651Z,13.40
2022-11-25T08:10:45.213Z,13.03
2022-11-25T08:13:13.797Z,12.40
2022-11-25T08:15:42.538Z,12.40
2022-11-25T08:18:11.098Z,12.47
2022-11-25T08:20:39.717Z,12.53
2022-11-25T08:23:08.370Z,12.70
2022-11-25T08:25:44.965Z,11.60
2022-11-25T08:28:16.065Z,12.47
2022-11-25T08:30:44.628Z,11.60
2022-11-25T08:33:13.135Z,12.37
2022-11-25T08:35:41.736Z,12.23
2022-11-25T08:38:12.929Z,11.67
2022-11-25T08:40:46.789Z,11.63
2022-11-25T08:43:15.471Z,12.10
2022-11-25T08:45:44.094Z,12.60
2022-11-25T08:48:12.674Z,11.57
2022-11-25T08:50:49.053Z,12.20
2022-11-25T08:53:18.655Z,11.63
2022-11-25T08:55:49.453Z,11.90
2022-11-25T08:58:17.996Z,11.50
2022-11-25T09:00:47.050Z,11.30
2022-11-25T09:03:15.659Z,11.53
2022-11-25T09:05:45.561Z,11.97
2022-11-25T09:08:14.807Z,11.73
2022-11-25T09:10:43.630Z,12.90
2022-11-25T09:13:13.598Z,12.33
2022-11-25T09:15:42.195Z,12.70
2022-11-25T09:18:12.272Z,12.37
2022-11-25T09:20:42.518Z,12.30
2022-11-25T09:23:11.287Z,11.70
2022-11-25T09:25:40.002Z,11.87
2022-11-25T09:28:08.547Z,12.10
2022-11-25T09:30:39.655Z,12.03
2022-11-25T09:33:08.195Z,12.70
2022-11-25T09:35:38.187Z,12.17
2022-11-25T09:38:06.732Z,11.93
2022-11-25T09:40:44.638Z,11.83
2022-11-25T09:43:47.604Z,11.43
2022-11-25T09:46:43.552Z,12.30
2022-11-25T09:49:30.793Z,12.33
2022-11-25T09:52:13.575Z,12.27
2022-11-25T09:54:46.394Z,11.93
2022-11-25T09:57:24.443Z,11.77
2022-11-25T10:00:07.008Z,12.23
2022-11-25T10:02:56.877Z,12.90
2022-11-25T10:05:30.889Z,11.70
2022-11-25T10:08:08.633Z,12.00
2022-11-25T10:10:45.204Z,12.67
2022-11-25T10:13:23.139Z,12.23
2022-11-25T10:15:53.080Z,12.83
2022-11-25T10:18:28.784Z,12.07
2022-11-25T10:20:57.409Z,11.73
2022-11-25T10:23:29.291Z,12.10
2022-11-25T10:26:02.817Z,12.37
2022-11-25T10:28:35.132Z,12.23
2022-11-25T10:31:08.454Z,12.10
2022-11-25T10:33:45.425Z,12.90
2022-11-25T10:36:19.962Z,11.77
2022-11-25T10:38:58.231Z,12.33
2022-11-25T10:41:32.082Z,12.50
2022-11-25T10:44:00.658Z,11.73
2022-11-25T10:47:11.681Z,12.20
2022-11-25T10:49:37.611Z,12.50
2022-11-25T10:52:13.853Z,13.20
2022-11-25T10:54:42.936Z,11.93
2022-11-25T10:57:21.342Z,12.40
2022-11-25T10:59:58.849Z,11.60
2022-11-25T11:02:29.971Z,11.80
2022-11-25T11:05:18.351Z,12.30
2022-11-25T11:07:48.600Z,12.10
2022-11-25T11:10:22.285Z,11.53
2022-11-25T11:13:00.729Z,12.00
2022-11-25T11:15:31.829Z,12.07
2022-11-25T11:18:15.092Z,14.07
2022-11-25T11:20:50.450Z,11.10
2022-11-25T11:23:20.321Z,11.60
2022-11-25T11:25:59.592Z,11.33
2022-11-25T11:28:38.776Z,12.27
2022-11-25T11:31:18.809Z,11.70
2022-11-25T11:33:59.422Z,11.03
2022-11-25T11:36:46.628Z,11.30
2022-11-25T11:40:00.251Z,11.83
2022-11-25T11:42:41.758Z,11.27
2022-11-25T11:45:30.083Z,11.50
2022-11-25T11:48:14.164Z,11.13
2022-11-25T11:50:48.284Z,11.20
2022-11-25T11:53:26.708Z,11.13
2022-11-25T11:59:17.289Z,10.57
2022-11-25T12:02:03.054Z,11.40
2022-11-25T12:04:41.227Z,11.07
2022-11-25T12:07:21.593Z,10.93
2022-11-25T12:09:58.315Z,10.97
2022-11-25T12:12:35.187Z,10.70
2022-11-25T12:15:14.137Z,10.37
2022-11-25T12:17:48.180Z,11.30
2022-11-25T12:20:26.794Z,11.00
2022-11-25T12:23:03.812Z,11.03
2022-11-25T12:25:38.978Z,10.83
2022-11-25T12:28:12.322Z,11.03
2022-11-25T12:30:57.492Z,10.60
2022-11-25T12:33:43.690Z,10.73
2022-11-25T12:36:18.243Z,10.30
2022-11-25T12:38:53.354Z,11.10
2022-11-25T12:41:30.913Z,10.60
2022-11-25T12:44:05.570Z,11.80
2022-11-25T12:46:41.213Z,10.30
2022-11-25T12:49:20.087Z,11.30
2022-11-25T12:52:26.421Z,10.30
2022-11-25T12:55:12.394Z,11.97
2022-11-25T12:58:23.925Z,10.70
2022-11-25T13:01:44.316Z,10.80
2022-11-25T13:04:58.039Z,10.27
2022-11-25T13:07:42.631Z,10.80
2022-11-25T13:10:29.668Z,10.80
2022-11-25T13:13:28.857Z,10.73
2022-11-25T13:16:00.742Z,10.63
2022-11-25T13:18:34.070Z,11.00
2022-11-25T13:21:09.296Z,11.40
2022-11-25T13:23:53.358Z,11.00
2022-11-25T13:26:55.047Z,10.03
2022-11-25T13:30:04.127Z,10.70
2022-11-25T13:32:43.372Z,10.60
2022-11-25T13:35:48.313Z,10.50
2022-11-25T13:39:00.969Z,10.30
2022-11-25T13:41:46.974Z,11.20
2022-11-25T13:44:28.155Z,11.10
2022-11-25T13:46:59.662Z,10.87
2022-11-25T13:49:37.405Z,11.03
2022-11-25T13:52:31.926Z,10.80
2022-11-25T13:55:06.547Z,10.23
2022-11-25T13:57:36.223Z,11.40
2022-11-25T14:00:10.286Z,11.17
2022-11-25T14:02:49.438Z,10.70
2022-11-25T14:06:05.112Z,10.57
2022-11-25T14:08:43.282Z,10.63
2022-11-25T14:11:52.716Z,10.70
2022-11-25T14:14:54.139Z,10.97
2022-11-25T14:17:53.505Z,11.00
2022-11-25T14:20:41.308Z,11.10
2022-11-25T14:23:42.435Z,11.57
2022-11-25T14:26:34.132Z,10.50
2022-11-25T14:29:06.330Z,11.20
2022-11-25T14:31:41.738Z,10.80
2022-11-25T14:34:19.222Z,10.87
2022-11-25T14:36:52.231Z,11.27
2022-11-25T14:39:27.652Z,11.00
2022-11-25T14:42:04.272Z,10.57
2022-11-25T14:44:39.448Z,10.60
2022-11-25T14:47:08.125Z,10.80
2022-11-25T14:50:05.263Z,10.40
2022-11-25T14:52:38.686Z,10.70
2022-11-25T14:55:08.864Z,11.50
2022-11-25T14:57:41.729Z,10.50
2022-11-25T15:00:15.478Z,11.27
2022-11-25T15:02:56.410Z,11.10
2022-11-25T15:05:33.155Z,11.33
2022-11-25T15:08:04.476Z,11.27
2022-11-25T15:10:37.899Z,10.93
2022-11-25T15:13:15.384Z,11.40
2022-11-25T15:15:47.207Z,11.63
2022-11-25T15:18:22.195Z,11.30
2022-11-25T15:20:58.740Z,11.40
2022-11-25T15:23:32.047Z,12.33
2022-11-25T15:26:01.251Z,10.97
2022-11-25T15:28:36.798Z,11.63
2022-11-25T15:31:13.351Z,11.37
2022-11-25T15:33:42.961Z,11.27
2022-11-25T15:36:13.059Z,12.00
2022-11-25T15:38:44.695Z,11.13
2022-11-25T15:41:23.073Z,11.40
2022-11-25T15:43:55.902Z,11.30
2022-11-25T15:46:26.546Z,11.10
2022-11-25T15:48:59.063Z,11.07
2022-11-25T15:51:36.798Z,11.57
2022-11-25T15:54:14.407Z,11.90
2022-11-25T15:56:49.065Z,11.40
2022-11-25T15:59:47.747Z,11.50
2022-11-25T16:02:37.259Z,11.03
2022-11-25T16:05:37.162Z,11.73
2022-11-25T16:08:38.302Z,11.70
2022-11-25T16:11:18.470Z,11.67
2022-11-25T16:13:48.615Z,11.90
2022-11-25T16:16:26.718Z,11.67
2022-11-25T16:19:15.265Z,11.57
2022-11-25T16:21:52.272Z,12.23
2022-11-25T16:24:38.380Z,11.17
2022-11-25T16:27:17.299Z,11.97
2022-11-25T16:29:56.315Z,11.47
2022-11-25T16:32:28.697Z,12.07
2022-11-25T16:35:15.392Z,11.53
2022-11-25T16:37:48.806Z,12.17
2022-11-25T16:40:20.223Z,12.03
2022-11-25T16:42:51.792Z,12.07
2022-11-25T16:45:23.278Z,11.70
2022-11-25T16:47:52.139Z,12.57
2022-11-25T16:50:22.393Z,11.87
2022-11-25T16:52:51.168Z,11.57
2022-11-25T16:55:21.150Z,12.03
2022-11-25T16:57:50.633Z,12.40
2022-11-25T17:00:19.831Z,12.43
2022-11-25T17:02:48.422Z,11.97
2022-11-25T17:05:20.219Z,12.97
2022-11-25T17:07:50.386Z,12.33
2022-11-25T17:10:22.018Z,12.37
2022-11-25T17:12:51.167Z,12.43
2022-11-25T17:15:25.205Z,11.90
2022-11-25T17:17:54.070Z,11.70
2022-11-25T17:20:25.694Z,11.93
2022-11-25T17:22:55.401Z,11.77
2022-11-25T17:25:33.690Z,12.37
2022-11-25T17:28:04.011Z,11.60
2022-11-25T17:30:32.720Z,11.93
2022-11-25T17:33:07.928Z,11.73
2022-11-25T17:35:36.701Z,12.10
2022-11-25T17:38:14.609Z,11.63
2022-11-25T17:40:45.704Z,12.03
2022-11-25T17:43:17.119Z,11.40
2022-11-25T17:45:47.569Z,12.00
2022-11-25T17:48:18.932Z,11.50
2022-11-25T17:50:48.086Z,12.40
2022-11-25T17:53:16.888Z,16.20
2022-11-25T17:55:47.043Z,12.10
2022-11-25T17:58:19.300Z,11.77
2022-11-25T18:00:49.008Z,12.00
2022-11-25T18:03:18.726Z,12.27
2022-11-25T18:05:47.427Z,11.40
2022-11-25T18:08:16.073Z,11.73
2022-11-25T18:10:48.710Z,11.77
2022-11-25T18:13:18.003Z,11.30
2022-11-25T18:15:47.237Z,12.20
2022-11-25T18:18:21.883Z,11.70
2022-11-25T18:20:50.678Z,11.83
2022-11-25T18:23:19.722Z,12.23
2022-11-25T18:25:50.153Z,12.17
2022-11-25T18:28:23.064Z,11.70
2022-11-25T18:30:54.470Z,11.83
2022-11-25T18:33:23.349Z,11.60
2022-11-25T18:35:52.112Z,11.57
2022-11-25T18:38:20.896Z,12.10
2022-11-25T18:40:53.826Z,12.20
2022-11-25T18:43:26.228Z,11.80
2022-11-25T18:45:55.855Z,12.50
2022-11-25T18:48:27.100Z,11.73
2022-11-25T18:50:57.582Z,11.30
2022-11-25T18:53:26.412Z,11.67
2022-11-25T18:55:56.608Z,11.80
2022-11-25T18:58:28.236Z,11.70
2022-11-25T19:01:03.709Z,11.97
2022-11-25T19:03:33.348Z,11.40
2022-11-25T19:06:03.371Z,11.87
2022-11-25T19:08:32.198Z,12.63
2022-11-25T19:11:02.425Z,11.90
2022-11-25T19:13:35.239Z,12.30
2022-11-25T19:16:11.906Z,12.20
2022-11-25T19:18:41.139Z,12.13
2022-11-25T19:21:15.894Z,11.30
2022-11-25T19:24:13.330Z,12.43
2022-11-25T19:26:47.014Z,12.70
2022-11-25T19:29:21.370Z,12.73
2022-11-25T19:31:51.235Z,12.53
2022-11-25T19:34:28.658Z,12.13
2022-11-25T19:36:57.289Z,12.07
2022-11-25T19:39:25.888Z,12.10
2022-11-25T19:41:55.889Z,12.43
2022-11-25T19:44:24.514Z,11.57
2022-11-25T19:47:14.286Z,11.50
2022-11-25T19:49:42.308Z,11.00
2022-11-25T19:52:18.672Z,12.50
2022-11-25T19:54:47.372Z,11.97
2022-11-25T19:57:19.722Z,12.13
2022-11-25T19:59:48.810Z,11.70
2022-11-25T20:02:22.516Z,11.97
2022-11-25T20:04:55.711Z,12.10
2022-11-25T20:07:24.737Z,12.10
2022-11-25T20:09:53.629Z,11.70
2022-11-25T20:12:26.494Z,11.60
2022-11-25T20:14:55.347Z,11.20
2022-11-25T20:17:28.398Z,11.73
2022-11-25T20:20:00.516Z,11.73
2022-11-25T20:22:34.408Z,12.00
2022-11-25T20:25:05.777Z,11.70
2022-11-25T20:27:35.865Z,11.67
2022-11-25T20:30:07.868Z,11.10
2022-11-25T20:32:36.458Z,11.07
2022-11-25T20:35:05.320Z,11.23
2022-11-25T20:37:50.510Z,11.30
2022-11-25T20:40:23.317Z,11.17
2022-11-25T20:42:55.040Z,11.20
2022-11-25T20:45:24.448Z,12.07
2022-11-25T20:47:53.080Z,12.23
2022-11-25T20:50:23.072Z,11.93
2022-11-25T20:52:52.027Z,12.90
2022-11-25T20:55:23.849Z,12.43
2022-11-25T20:57:54.347Z,12.57
2022-11-25T21:00:26.578Z,15.23
2022-11-25T21:02:57.407Z,51.63
2022-11-25T21:05:27.836Z,52.63
2022-11-25T21:07:56.690Z,93.53
2022-11-25T21:10:28.506Z,63.73
2022-11-25T21:12:58.620Z,78.47
2022-11-25T21:15:29.327Z,65.67
2022-11-25T21:17:59.680Z,65.07
2022-11-25T21:20:28.306Z,49.27
2022-11-25T21:23:05.526Z,29.27
2022-11-25T21:25:35.793Z,23.07
2022-11-25T21:28:06.256Z,30.87
2022-11-25T21:30:34.874Z,22.03
2022-11-25T21:33:03.412Z,25.80
2022-11-25T21:35:34.646Z,17.10
2022-11-25T21:38:06.965Z,15.10
2022-11-25T21:40:40.894Z,13.20
2022-11-25T21:43:21.512Z,12.40
2022-11-25T21:45:53.924Z,11.93
2022-11-25T21:48:25.215Z,12.80
2022-11-25T21:50:54.115Z,13.00
2022-11-25T21:53:23.022Z,12.30
2022-11-25T21:55:52.126Z,13.60
2022-11-25T21:58:27.200Z,12.20
2022-11-25T22:00:58.418Z,12.03
2022-11-25T22:03:31.840Z,12.13
2022-11-25T22:06:00.682Z,12.90
2022-11-25T22:08:29.286Z,11.83
2022-11-25T22:10:58.070Z,11.30
2022-11-25T22:13:35.235Z,11.90
2022-11-25T22:16:04.540Z,12.50
2022-11-25T22:18:36.438Z,11.40
2022-11-25T22:21:05.750Z,11.10
2022-11-25T22:23:34.556Z,14.10
2022-11-25T22:26:05.629Z,12.33
2022-11-25T22:28:37.357Z,11.53
2022-11-25T22:31:09.216Z,12.10
2022-11-25T22:33:38.777Z,11.90
2022-11-25T22:36:07.958Z,11.57
2022-11-25T22:38:36.501Z,12.83
2022-11-25T22:41:06.037Z,11.97
2022-11-25T22:43:40.960Z,12.17
2022-11-25T22:46:11.576Z,12.40
2022-11-25T22:48:40.772Z,14.60
2022-11-25T22:51:18.136Z,11.80
2022-11-25T22:53:46.780Z,12.03
2022-11-25T22:56:19.007Z,12.30
2022-11-25T22:58:49.011Z,11.63
2022-11-25T23:01:18.568Z,11.60
2022-11-25T23:03:47.312Z,12.03
2022-11-25T23:06:15.895Z,10.97
2022-11-25T23:08:44.437Z,11.57
2022-11-25T23:11:17.742Z,12.23
2022-11-25T23:13:48.714Z,12.23
2022-11-25T23:16:18.790Z,11.30
2022-11-25T23:18:48.269Z,11.10
2022-11-25T23:21:21.007Z,11.17
2022-11-25T23:23:50.123Z,11.80
2022-11-25T23:26:19.222Z,11.37
2022-11-25T23:28:48.147Z,11.37
2022-11-25T23:31:19.528Z,11.33
2022-11-25T23:33:51.501Z,11.27
2022-11-25T23:36:26.911Z,12.30
2022-11-25T23:38:58.681Z,11.60
2022-11-25T23:41:30.111Z,11.00
2022-11-25T23:43:59.905Z,11.53
2022-11-25T23:46:36.224Z,11.43
2022-11-25T23:49:05.830Z,11.90
2022-11-25T23:51:34.460Z,11.50
2022-11-25T23:54:03.116Z,11.73
2022-11-25T23:56:31.792Z,11.67
2022-11-25T23:59:01.190Z,11.73
